Saint Petersburg Beach, FL

3:58 AM EST on December 08, 2016 (GMT -0500)
Barrier Island community | | Change Station

Elev 10 ft 27.72 °N, 82.74 °W | Updated 1 minute ago

Partly Cloudy
Partly Cloudy
62.6 °F
Feels Like 62.6 °F
N
0.0
Wind Variable Wind from NNW
Gusts 0.0 mph

Today
High -- | Low -- °F
--% Chance of Precip.
Yesterday
High -- | Low -- °F
Precip. -- in
Pressure 30.10 in
Visibility 10.0 miles
Clouds Clear
Dew Point 61 °F
Humidity 94%
Rainfall 0.00 in
Snow Depth Not available.
7:09 AM 5:36 PM
First Quarter, 61% visible
METAR KPIE 080853Z AUTO 34005KT 10SM CLR 17/15 A3010 RMK AO2 SLP191 T01720150 58002
Pressure 30.10 in
Visibility 10.0 miles
Clouds Clear
Dew Point 61 °F
Humidity 94%
Rainfall 0.00 in
Snow Depth Not available.
7:09 AM 5:36 PM
First Quarter, 61% visible
METAR KPIE 080853Z AUTO 34005KT 10SM CLR 17/15 A3010 RMK AO2 SLP191 T01720150 58002

10-Day Weather Forecast

Almanac

Astronomy

Dec. 08, 2016 Rise Set
Actual Time
Civil Twilight
Nautical Twilight
Astronomical Twilight
Moon
Length of Visible Light
Length of Day
Tomorrow will be .
, % of the Moon is Illuminated

Today's Extremes

State Highs State Lows

Community

WunderPhotos

Upload Photos

1,956,259 photos uploaded!

WunderBlog® & News

Nearby

Air Quality

  Air Quality AQ Index Pollutant
Not available.

Snow Depth

Station Depth Elevation

Earthquake Activity

City Distance Mag. Time & Date
Minimum magnitude displayed is 2.5.

Coastal Water Temperatures

Place Temperature

Stations

Nearby Weather Stations

Station Location Temp. Windchill Dew Point Humidity Wind Precip. Elev Updated Type
                   

Watches & Warnings

There are currently no watches in effect.